BHE230 ZSPD-EGLL
Flight info
| Callsign | BHE230 |
|---|---|
| Flight time | N/A |
| Altitude | FL341 |
| Route | PIK94D PIKAS G330 PIMOL A593 DALIM W157 VYK G212 SOTMU B339 ASILA A575 UPREK W28 LAGEB W66 NUKTI B215 FKG A368 SARIN N161 LEYLA T916 MATAL M11 REBLO UM11 DELEL UT167 NETPU UB111 TBN UM11 CRM UL746 ODERO L746 LUGEB BUDOP BEGLA DEXIT INBED BOMBI ADKUV LENDO SOGRI DENUT L608 LOGAN LOGA2H |
| Aircraft | A359/H-SDE2E3GHIJ3J4J5LM1ORWXY/LB1D1 |
Departure
| Time | N/A |
|---|---|
| Airport | Shanghai Pudong International Airport (ZSPD) |
Arrival
| Time | 2026-05-04 03:49 |
|---|---|
| Airport | London Heathrow Airport (EGLL) |
| Time | Latitude | Longitude | Altitude | Speed | Heading |
|---|---|---|---|---|---|
| 2026-05-03 22:44 | 43.04497 | 51.54953 | 38098 ft | 446 kts | 236° |
| 2026-05-03 22:44 | 43.02635 | 51.51590 | 38080 ft | 446 kts | 235° |
| 2026-05-03 22:45 | 42.98877 | 51.44802 | 38102 ft | 452 kts | 234° |
| 2026-05-03 22:45 | 42.95052 | 51.37928 | 38103 ft | 458 kts | 234° |
| 2026-05-03 22:46 | 42.91184 | 51.30991 | 38103 ft | 462 kts | 234° |
| 2026-05-03 22:46 | 42.87285 | 51.24014 | 38111 ft | 464 kts | 233° |
| 2026-05-03 22:47 | 42.83379 | 51.17038 | 38106 ft | 464 kts | 233° |
| 2026-05-03 22:47 | 42.79467 | 51.10068 | 38106 ft | 464 kts | 233° |
| 2026-05-03 22:48 | 42.75567 | 51.03135 | 38107 ft | 463 kts | 233° |
| 2026-05-03 22:48 | 42.71644 | 50.96177 | 38110 ft | 463 kts | 233° |
| 2026-05-03 22:49 | 42.67727 | 50.89247 | 38105 ft | 463 kts | 233° |
| 2026-05-03 22:49 | 42.63810 | 50.82332 | 38105 ft | 463 kts | 233° |
| 2026-05-03 22:50 | 42.59885 | 50.75420 | 38110 ft | 463 kts | 233° |
| 2026-05-03 22:50 | 42.55964 | 50.68531 | 38115 ft | 462 kts | 233° |
| 2026-05-03 22:51 | 42.52039 | 50.61650 | 38114 ft | 462 kts | 233° |
| 2026-05-03 22:51 | 42.48111 | 50.54780 | 38115 ft | 462 kts | 233° |
| 2026-05-03 22:52 | 42.44169 | 50.47900 | 38117 ft | 462 kts | 233° |
| 2026-05-03 22:52 | 42.40332 | 50.40981 | 38116 ft | 462 kts | 236° |
| 2026-05-03 22:53 | 42.36655 | 50.33896 | 38119 ft | 461 kts | 236° |
| 2026-05-03 22:53 | 42.32960 | 50.26805 | 38123 ft | 461 kts | 236° |
| 2026-05-03 22:54 | 42.29236 | 50.19762 | 38118 ft | 461 kts | 235° |
| 2026-05-03 22:54 | 42.25505 | 50.12759 | 38119 ft | 461 kts | 235° |
| 2026-05-03 22:55 | 42.21763 | 50.05753 | 38120 ft | 460 kts | 235° |
| 2026-05-03 22:55 | 42.18028 | 49.98773 | 38126 ft | 460 kts | 235° |
| 2026-05-03 22:56 | 42.14288 | 49.91797 | 38121 ft | 459 kts | 235° |
| 2026-05-03 22:56 | 42.10551 | 49.84842 | 38127 ft | 459 kts | 235° |
| 2026-05-03 22:57 | 42.06808 | 49.77893 | 38125 ft | 459 kts | 235° |
| 2026-05-03 22:57 | 42.03064 | 49.70958 | 38127 ft | 459 kts | 235° |
| 2026-05-03 22:58 | 41.99314 | 49.64027 | 38125 ft | 459 kts | 235° |
| 2026-05-03 22:58 | 41.95572 | 49.57128 | 38127 ft | 459 kts | 235° |
| 2026-05-03 22:59 | 41.91806 | 49.50199 | 38123 ft | 459 kts | 235° |
| 2026-05-03 22:59 | 41.88045 | 49.43296 | 38130 ft | 459 kts | 235° |
| 2026-05-03 23:00 | 41.84279 | 49.36399 | 38131 ft | 459 kts | 235° |
| 2026-05-03 23:00 | 41.80510 | 49.29509 | 38128 ft | 459 kts | 235° |
| 2026-05-03 23:01 | 41.76921 | 49.22470 | 38129 ft | 459 kts | 238° |
| 2026-05-03 23:01 | 41.73443 | 49.15316 | 38130 ft | 459 kts | 238° |
| 2026-05-03 23:02 | 41.69948 | 49.08213 | 38134 ft | 459 kts | 238° |
| 2026-05-03 23:02 | 41.66416 | 49.01136 | 38137 ft | 458 kts | 238° |
| 2026-05-03 23:03 | 41.63046 | 48.94425 | 38152 ft | 459 kts | 238° |
| 2026-05-03 23:03 | 41.59483 | 48.87345 | 38165 ft | 458 kts | 237° |
| 2026-05-03 23:03 | 41.57735 | 48.83878 | 38621 ft | 449 kts | 237° |
| 2026-05-03 23:04 | 41.55998 | 48.80438 | 39073 ft | 441 kts | 237° |
| 2026-05-03 23:04 | 41.54290 | 48.77058 | 39297 ft | 439 kts | 237° |
| 2026-05-03 23:04 | 41.52580 | 48.73672 | 39441 ft | 439 kts | 237° |
| 2026-05-03 23:04 | 41.50860 | 48.70354 | 39578 ft | 438 kts | 236° |
| 2026-05-03 23:05 | 41.49052 | 48.67085 | 39713 ft | 438 kts | 234° |
| 2026-05-03 23:05 | 41.47204 | 48.63841 | 39828 ft | 438 kts | 234° |
| 2026-05-03 23:05 | 41.45362 | 48.60630 | 39950 ft | 438 kts | 234° |
| 2026-05-03 23:06 | 41.41677 | 48.54157 | 40018 ft | 441 kts | 234° |
| 2026-05-03 23:06 | 41.38063 | 48.47597 | 40005 ft | 439 kts | 236° |
| 2026-05-03 23:07 | 41.34521 | 48.41036 | 39998 ft | 437 kts | 236° |
| 2026-05-03 23:07 | 41.30975 | 48.34504 | 39982 ft | 435 kts | 236° |
| 2026-05-03 23:08 | 41.27434 | 48.28026 | 39970 ft | 434 kts | 235° |
| 2026-05-03 23:08 | 41.23881 | 48.21550 | 39963 ft | 434 kts | 235° |
| 2026-05-03 23:09 | 41.20333 | 48.15097 | 39956 ft | 433 kts | 235° |
| 2026-05-03 23:09 | 41.16786 | 48.08661 | 39948 ft | 433 kts | 235° |
| 2026-05-03 23:10 | 41.13265 | 48.02234 | 39966 ft | 433 kts | 237° |
| 2026-05-03 23:10 | 41.10538 | 47.95128 | 39958 ft | 433 kts | 251° |
| 2026-05-03 23:11 | 41.08984 | 47.87435 | 39964 ft | 433 kts | 255° |
| 2026-05-03 23:11 | 41.07627 | 47.79656 | 39980 ft | 437 kts | 256° |
| 2026-05-03 23:12 | 41.06263 | 47.71800 | 39979 ft | 442 kts | 255° |
| 2026-05-03 23:12 | 41.04852 | 47.63827 | 39985 ft | 446 kts | 255° |
| 2026-05-03 23:13 | 41.03419 | 47.55834 | 39993 ft | 448 kts | 255° |
| 2026-05-03 23:13 | 41.01975 | 47.47825 | 40001 ft | 451 kts | 255° |
| 2026-05-03 23:14 | 41.00510 | 47.39730 | 40004 ft | 452 kts | 255° |
| 2026-05-03 23:14 | 40.99040 | 47.31643 | 40009 ft | 453 kts | 255° |
| 2026-05-03 23:15 | 40.97567 | 47.23564 | 40010 ft | 454 kts | 255° |
| 2026-05-03 23:15 | 40.96076 | 47.15432 | 40012 ft | 455 kts | 255° |
| 2026-05-03 23:16 | 40.94582 | 47.07317 | 40009 ft | 455 kts | 255° |
| 2026-05-03 23:16 | 40.93080 | 46.99192 | 40012 ft | 456 kts | 255° |
| 2026-05-03 23:17 | 40.91573 | 46.91074 | 40007 ft | 456 kts | 254° |
| 2026-05-03 23:17 | 40.90100 | 46.82947 | 39993 ft | 456 kts | 257° |
| 2026-05-03 23:18 | 40.89193 | 46.74646 | 40002 ft | 457 kts | 260° |
| 2026-05-03 23:18 | 40.88411 | 46.66333 | 39991 ft | 457 kts | 260° |
| 2026-05-03 23:19 | 40.87637 | 46.58011 | 39986 ft | 457 kts | 260° |
| 2026-05-03 23:19 | 40.86848 | 46.49688 | 39983 ft | 457 kts | 260° |
| 2026-05-03 23:20 | 40.86049 | 46.41379 | 39970 ft | 457 kts | 260° |
| 2026-05-03 23:20 | 40.85243 | 46.33077 | 39971 ft | 457 kts | 260° |
| 2026-05-03 23:21 | 40.84431 | 46.24781 | 39972 ft | 457 kts | 259° |
| 2026-05-03 23:21 | 40.83613 | 46.16489 | 39968 ft | 456 kts | 259° |
| 2026-05-03 23:22 | 40.82376 | 46.04046 | 39962 ft | 456 kts | 259° |
| 2026-05-03 23:22 | 40.81545 | 45.95768 | 39962 ft | 456 kts | 259° |
| 2026-05-03 23:23 | 40.80708 | 45.87477 | 39958 ft | 456 kts | 259° |
| 2026-05-03 23:23 | 40.79864 | 45.79202 | 39960 ft | 456 kts | 259° |
| 2026-05-03 23:24 | 40.79015 | 45.70921 | 39958 ft | 456 kts | 259° |
| 2026-05-03 23:24 | 40.78159 | 45.62634 | 39950 ft | 457 kts | 259° |
| 2026-05-03 23:25 | 40.77298 | 45.54363 | 39948 ft | 456 kts | 259° |
| 2026-05-03 23:25 | 40.77066 | 45.45974 | 39950 ft | 461 kts | 268° |
| 2026-05-03 23:26 | 40.77414 | 45.37545 | 39953 ft | 462 kts | 269° |
| 2026-05-03 23:26 | 40.77824 | 45.29110 | 39949 ft | 462 kts | 269° |
| 2026-05-03 23:27 | 40.78222 | 45.20635 | 39945 ft | 463 kts | 269° |
| 2026-05-03 23:27 | 40.78598 | 45.12188 | 39956 ft | 463 kts | 269° |
| 2026-05-03 23:28 | 40.78969 | 45.03718 | 39948 ft | 463 kts | 269° |
| 2026-05-03 23:28 | 40.79332 | 44.95247 | 39951 ft | 464 kts | 269° |
| 2026-05-03 23:29 | 40.79686 | 44.86763 | 39946 ft | 464 kts | 269° |
| 2026-05-03 23:29 | 40.80036 | 44.78283 | 39955 ft | 464 kts | 268° |
| 2026-05-03 23:30 | 40.80379 | 44.69776 | 39947 ft | 465 kts | 268° |
| 2026-05-03 23:30 | 40.80716 | 44.61281 | 39940 ft | 465 kts | 269° |
| 2026-05-03 23:31 | 40.81054 | 44.52774 | 39950 ft | 466 kts | 268° |
| 2026-05-03 23:31 | 40.81383 | 44.44239 | 39941 ft | 466 kts | 268° |
| 2026-05-03 23:32 | 40.81692 | 44.35712 | 39947 ft | 466 kts | 268° |
| 2026-05-03 23:32 | 40.82009 | 44.27186 | 39951 ft | 467 kts | 268° |
| 2026-05-03 23:33 | 40.82319 | 44.18618 | 39938 ft | 468 kts | 268° |
| 2026-05-03 23:33 | 40.82621 | 44.10072 | 39946 ft | 469 kts | 268° |
| 2026-05-03 23:34 | 40.82920 | 44.01492 | 39945 ft | 469 kts | 268° |
| 2026-05-03 23:34 | 40.83213 | 43.92861 | 39941 ft | 470 kts | 268° |
| 2026-05-03 23:35 | 40.83498 | 43.84260 | 39943 ft | 471 kts | 268° |
| 2026-05-03 23:35 | 40.83778 | 43.75646 | 39937 ft | 471 kts | 268° |
| 2026-05-03 23:36 | 40.84055 | 43.67008 | 39939 ft | 471 kts | 268° |
| 2026-05-03 23:36 | 40.84478 | 43.58574 | 39937 ft | 473 kts | 270° |
| 2026-05-03 23:37 | 40.85013 | 43.49921 | 39913 ft | 474 kts | 270° |
| 2026-05-03 23:37 | 40.85520 | 43.41269 | 39902 ft | 474 kts | 269° |
| 2026-05-03 23:38 | 40.85997 | 43.32599 | 39901 ft | 474 kts | 269° |
| 2026-05-03 23:38 | 40.86459 | 43.23909 | 39901 ft | 475 kts | 269° |
| 2026-05-03 23:39 | 40.86914 | 43.15229 | 39894 ft | 475 kts | 269° |
| 2026-05-03 23:39 | 40.87364 | 43.06549 | 39890 ft | 475 kts | 269° |
| 2026-05-03 23:40 | 40.87808 | 42.97837 | 39876 ft | 475 kts | 269° |
| 2026-05-03 23:40 | 40.88246 | 42.89142 | 39866 ft | 475 kts | 269° |
| 2026-05-03 23:41 | 40.88677 | 42.80436 | 39866 ft | 475 kts | 269° |
| 2026-05-03 23:41 | 40.89103 | 42.71730 | 39869 ft | 476 kts | 269° |
| 2026-05-03 23:42 | 40.89521 | 42.63028 | 39866 ft | 476 kts | 269° |
| 2026-05-03 23:42 | 40.89934 | 42.54320 | 39864 ft | 476 kts | 269° |
| 2026-05-03 23:43 | 40.90336 | 42.45603 | 39858 ft | 475 kts | 269° |
| 2026-05-03 23:43 | 40.90736 | 42.36894 | 39849 ft | 476 kts | 269° |
| 2026-05-03 23:44 | 40.91130 | 42.28194 | 39843 ft | 476 kts | 269° |
| 2026-05-03 23:44 | 40.91519 | 42.19453 | 39830 ft | 477 kts | 269° |
| 2026-05-03 23:45 | 40.91899 | 42.10717 | 39823 ft | 477 kts | 269° |
| 2026-05-03 23:45 | 40.92273 | 42.01962 | 39811 ft | 477 kts | 269° |
| 2026-05-03 23:46 | 40.92640 | 41.93225 | 39808 ft | 478 kts | 269° |
| 2026-05-03 23:46 | 40.92999 | 41.84473 | 39806 ft | 478 kts | 269° |
| 2026-05-03 23:47 | 40.93355 | 41.75681 | 39803 ft | 479 kts | 269° |
| 2026-05-03 23:47 | 40.93704 | 41.66907 | 39791 ft | 480 kts | 269° |
| 2026-05-03 23:48 | 40.94046 | 41.58127 | 39799 ft | 480 kts | 268° |
| 2026-05-03 23:48 | 40.94383 | 41.49312 | 39792 ft | 481 kts | 268° |
| 2026-05-03 23:49 | 40.94717 | 41.40485 | 39793 ft | 481 kts | 268° |
| 2026-05-03 23:49 | 40.95038 | 41.31658 | 39793 ft | 482 kts | 268° |
| 2026-05-03 23:50 | 40.95354 | 41.22816 | 39790 ft | 483 kts | 268° |
| 2026-05-03 23:50 | 40.95664 | 41.13969 | 39778 ft | 484 kts | 268° |
| 2026-05-03 23:51 | 40.95971 | 41.05055 | 39760 ft | 485 kts | 268° |
| 2026-05-03 23:51 | 40.96271 | 40.96143 | 39761 ft | 486 kts | 268° |
| 2026-05-03 23:52 | 40.96299 | 40.87251 | 39759 ft | 482 kts | 260° |
| 2026-05-03 23:52 | 40.95609 | 40.78457 | 39754 ft | 481 kts | 259° |
| 2026-05-03 23:53 | 40.94811 | 40.69683 | 39750 ft | 482 kts | 259° |
| 2026-05-03 23:53 | 40.93999 | 40.60900 | 39759 ft | 482 kts | 259° |
| 2026-05-03 23:54 | 40.93204 | 40.52105 | 39758 ft | 483 kts | 259° |
| 2026-05-03 23:54 | 40.92541 | 40.43276 | 39762 ft | 487 kts | 265° |
| 2026-05-03 23:55 | 40.93150 | 40.34301 | 39759 ft | 493 kts | 274° |
| 2026-05-03 23:55 | 40.94196 | 40.25353 | 39760 ft | 494 kts | 274° |
| 2026-05-03 23:56 | 40.95283 | 40.16377 | 39763 ft | 495 kts | 274° |
| 2026-05-03 23:56 | 40.96344 | 40.07401 | 39768 ft | 496 kts | 274° |
| 2026-05-03 23:57 | 40.97387 | 39.98390 | 39771 ft | 496 kts | 274° |
| 2026-05-03 23:57 | 40.98420 | 39.89372 | 39777 ft | 497 kts | 274° |
| 2026-05-03 23:58 | 40.99447 | 39.80345 | 39778 ft | 497 kts | 274° |
| 2026-05-03 23:58 | 41.00401 | 39.71307 | 39776 ft | 497 kts | 272° |
| 2026-05-03 23:59 | 41.01235 | 39.62245 | 39772 ft | 497 kts | 272° |
| 2026-05-03 23:59 | 41.02071 | 39.53155 | 39766 ft | 498 kts | 272° |
| 2026-05-04 00:00 | 41.02918 | 39.44079 | 39785 ft | 498 kts | 272° |
| 2026-05-04 00:00 | 41.03768 | 39.34989 | 39774 ft | 499 kts | 272° |
| 2026-05-04 00:01 | 41.04615 | 39.25874 | 39780 ft | 499 kts | 272° |
| 2026-05-04 00:01 | 41.05453 | 39.16753 | 39778 ft | 500 kts | 272° |
| 2026-05-04 00:02 | 41.06278 | 39.07797 | 39781 ft | 500 kts | 272° |
| 2026-05-04 00:02 | 41.07123 | 38.98664 | 39780 ft | 500 kts | 272° |
| 2026-05-04 00:03 | 41.07957 | 38.89552 | 39783 ft | 500 kts | 272° |
| 2026-05-04 00:03 | 41.08786 | 38.80406 | 39785 ft | 500 kts | 272° |
| 2026-05-04 00:04 | 41.09606 | 38.71266 | 39781 ft | 500 kts | 272° |
| 2026-05-04 00:04 | 41.10416 | 38.62148 | 39778 ft | 500 kts | 272° |
| 2026-05-04 00:05 | 41.11194 | 38.53017 | 39777 ft | 500 kts | 272° |
| 2026-05-04 00:05 | 41.11949 | 38.43863 | 39776 ft | 500 kts | 272° |
| 2026-05-04 00:06 | 41.12700 | 38.34716 | 39776 ft | 500 kts | 272° |
| 2026-05-04 00:06 | 41.13450 | 38.25560 | 39772 ft | 500 kts | 272° |
| 2026-05-04 00:07 | 41.14204 | 38.16430 | 39776 ft | 500 kts | 272° |
| 2026-05-04 00:07 | 41.14946 | 38.07261 | 39773 ft | 500 kts | 272° |
| 2026-05-04 00:08 | 41.15679 | 37.98116 | 39780 ft | 501 kts | 272° |
| 2026-05-04 00:08 | 41.16410 | 37.88934 | 39790 ft | 501 kts | 272° |
| 2026-05-04 00:09 | 41.17167 | 37.79771 | 39789 ft | 502 kts | 272° |
| 2026-05-04 00:09 | 41.17956 | 37.70586 | 39795 ft | 502 kts | 272° |
| 2026-05-04 00:10 | 41.18736 | 37.61387 | 39795 ft | 503 kts | 272° |
| 2026-05-04 00:10 | 41.19308 | 37.52180 | 39794 ft | 501 kts | 267° |
| 2026-05-04 00:11 | 41.19733 | 37.42949 | 39796 ft | 502 kts | 268° |
| 2026-05-04 00:11 | 41.20313 | 37.33737 | 39795 ft | 503 kts | 269° |
| 2026-05-04 00:12 | 41.20984 | 37.24492 | 39797 ft | 504 kts | 270° |
| 2026-05-04 00:12 | 41.21687 | 37.15246 | 39799 ft | 504 kts | 270° |
| 2026-05-04 00:13 | 41.22419 | 37.05995 | 39798 ft | 505 kts | 270° |
| 2026-05-04 00:13 | 41.23141 | 36.96747 | 39792 ft | 505 kts | 270° |
| 2026-05-04 00:14 | 41.23845 | 36.87502 | 39788 ft | 505 kts | 270° |
| 2026-05-04 00:14 | 41.24540 | 36.78233 | 39780 ft | 505 kts | 270° |
| 2026-05-04 00:15 | 41.25228 | 36.68948 | 39776 ft | 505 kts | 270° |
| 2026-05-04 00:15 | 41.25777 | 36.59670 | 39784 ft | 502 kts | 264° |
| 2026-05-04 00:16 | 41.25004 | 36.50593 | 39772 ft | 495 kts | 255° |
| 2026-05-04 00:16 | 41.23783 | 36.41695 | 39776 ft | 495 kts | 253° |
| 2026-05-04 00:17 | 41.22480 | 36.32677 | 39780 ft | 496 kts | 253° |
| 2026-05-04 00:17 | 41.21195 | 36.23702 | 39779 ft | 496 kts | 254° |
| 2026-05-04 00:18 | 41.19916 | 36.14706 | 39783 ft | 497 kts | 254° |
| 2026-05-04 00:18 | 41.18634 | 36.05700 | 39773 ft | 498 kts | 254° |
| 2026-05-04 00:19 | 41.17409 | 35.96675 | 39770 ft | 500 kts | 258° |
| 2026-05-04 00:19 | 41.17446 | 35.87416 | 39774 ft | 509 kts | 274° |
| 2026-05-04 00:20 | 41.19220 | 35.78280 | 39777 ft | 514 kts | 282° |
| 2026-05-04 00:20 | 41.21467 | 35.69297 | 39779 ft | 515 kts | 284° |
| 2026-05-04 00:21 | 41.23768 | 35.60290 | 39775 ft | 516 kts | 283° |
| 2026-05-04 00:21 | 41.25308 | 35.51139 | 39786 ft | 502 kts | 262° |
| 2026-05-04 00:22 | 41.24982 | 35.41885 | 39651 ft | 503 kts | 262° |
| 2026-05-04 00:22 | 41.24880 | 35.37246 | 39544 ft | 509 kts | 269° |
| 2026-05-04 00:22 | 41.25573 | 35.32613 | 39658 ft | 512 kts | 282° |
| 2026-05-04 00:23 | 41.26721 | 35.28171 | 39929 ft | 510 kts | 290° |
| 2026-05-04 00:23 | 41.28173 | 35.23890 | 40229 ft | 506 kts | 293° |
| 2026-05-04 00:23 | 41.29770 | 35.19738 | 40468 ft | 505 kts | 294° |
| 2026-05-04 00:23 | 41.31769 | 35.15885 | 40383 ft | 515 kts | 310° |
| 2026-05-04 00:24 | 41.34400 | 35.12795 | 40180 ft | 526 kts | 323° |
| 2026-05-04 00:24 | 41.37608 | 35.10334 | 39961 ft | 535 kts | 334° |
| 2026-05-04 00:24 | 41.41104 | 35.08615 | 39814 ft | 538 kts | 343° |
| 2026-05-04 00:24 | 41.44573 | 35.06814 | 39809 ft | 536 kts | 331° |
| 2026-05-04 00:25 | 41.50924 | 35.01721 | 39785 ft | 535 kts | 325° |
| 2026-05-04 00:25 | 41.57134 | 34.96232 | 39807 ft | 536 kts | 324° |
| 2026-05-04 00:26 | 41.63235 | 34.90573 | 39799 ft | 534 kts | 319° |
| 2026-05-04 00:26 | 41.68172 | 34.83343 | 39809 ft | 525 kts | 299° |
| 2026-05-04 00:27 | 41.71120 | 34.74563 | 39804 ft | 518 kts | 285° |
| 2026-05-04 00:27 | 41.73318 | 34.65399 | 39810 ft | 517 kts | 284° |
| 2026-05-04 00:28 | 41.75428 | 34.56201 | 39818 ft | 518 kts | 284° |
| 2026-05-04 00:28 | 41.77558 | 34.47011 | 39819 ft | 518 kts | 284° |
| 2026-05-04 00:29 | 41.79701 | 34.37810 | 39821 ft | 518 kts | 284° |
| 2026-05-04 00:29 | 41.81844 | 34.28606 | 39824 ft | 518 kts | 284° |
| 2026-05-04 00:30 | 41.83980 | 34.19407 | 39825 ft | 518 kts | 284° |
| 2026-05-04 00:30 | 41.86104 | 34.10215 | 39831 ft | 518 kts | 284° |
| 2026-05-04 00:31 | 41.88225 | 34.00994 | 39836 ft | 518 kts | 284° |
| 2026-05-04 00:31 | 41.90339 | 33.91772 | 39838 ft | 518 kts | 284° |
| 2026-05-04 00:32 | 41.92446 | 33.82538 | 39839 ft | 518 kts | 284° |
| 2026-05-04 00:32 | 41.94550 | 33.73287 | 39836 ft | 519 kts | 284° |
| 2026-05-04 00:33 | 41.97467 | 33.59336 | 39849 ft | 518 kts | 281° |
| 2026-05-04 00:34 | 41.99188 | 33.49955 | 39848 ft | 518 kts | 281° |
| 2026-05-04 00:34 | 42.00939 | 33.40570 | 39845 ft | 518 kts | 282° |
| 2026-05-04 00:35 | 42.02716 | 33.31200 | 39849 ft | 519 kts | 282° |
| 2026-05-04 00:35 | 42.04499 | 33.21817 | 39848 ft | 519 kts | 282° |
| 2026-05-04 00:36 | 42.06273 | 33.12427 | 39847 ft | 519 kts | 282° |
| 2026-05-04 00:36 | 42.08062 | 33.03038 | 39850 ft | 519 kts | 283° |
| 2026-05-04 00:37 | 42.09981 | 32.93713 | 39854 ft | 519 kts | 283° |
| 2026-05-04 00:37 | 42.11924 | 32.84362 | 39852 ft | 519 kts | 283° |
| 2026-05-04 00:38 | 42.13836 | 32.75010 | 39854 ft | 519 kts | 283° |
| 2026-05-04 00:38 | 42.15725 | 32.65659 | 39857 ft | 519 kts | 283° |
| 2026-05-04 00:39 | 42.17612 | 32.56280 | 39870 ft | 520 kts | 283° |
| 2026-05-04 00:39 | 42.19486 | 32.46892 | 39860 ft | 520 kts | 282° |
| 2026-05-04 00:40 | 42.21352 | 32.37482 | 39872 ft | 520 kts | 282° |
| 2026-05-04 00:40 | 42.23210 | 32.28068 | 39877 ft | 520 kts | 282° |
| 2026-05-04 00:41 | 42.25065 | 32.18665 | 39883 ft | 520 kts | 283° |
| 2026-05-04 00:41 | 42.26918 | 32.09229 | 39888 ft | 520 kts | 283° |
| 2026-05-04 00:42 | 42.28757 | 31.99807 | 39892 ft | 520 kts | 283° |
| 2026-05-04 00:42 | 42.30580 | 31.90411 | 39893 ft | 520 kts | 283° |
| 2026-05-04 00:43 | 42.32408 | 31.80965 | 39898 ft | 520 kts | 283° |
| 2026-05-04 00:43 | 42.34224 | 31.71537 | 39915 ft | 519 kts | 283° |
| 2026-05-04 00:44 | 42.36035 | 31.62097 | 39910 ft | 519 kts | 283° |
| 2026-05-04 00:44 | 42.37838 | 31.52658 | 39917 ft | 519 kts | 282° |
| 2026-05-04 00:45 | 42.39628 | 31.43229 | 39919 ft | 520 kts | 283° |
| 2026-05-04 00:45 | 42.41412 | 31.33793 | 39925 ft | 520 kts | 282° |
| 2026-05-04 00:46 | 42.43197 | 31.24304 | 39925 ft | 520 kts | 282° |
| 2026-05-04 00:46 | 42.44969 | 31.14832 | 39930 ft | 520 kts | 282° |
| 2026-05-04 00:47 | 42.46734 | 31.05362 | 39935 ft | 520 kts | 282° |
| 2026-05-04 00:47 | 42.48490 | 30.95879 | 39937 ft | 520 kts | 282° |
| 2026-05-04 00:48 | 42.50239 | 30.86371 | 39941 ft | 520 kts | 282° |
| 2026-05-04 00:48 | 42.51974 | 30.76897 | 39944 ft | 519 kts | 282° |
| 2026-05-04 00:49 | 42.53699 | 30.67419 | 39948 ft | 518 kts | 282° |
| 2026-05-04 00:49 | 42.55415 | 30.57952 | 39955 ft | 518 kts | 282° |
| 2026-05-04 00:50 | 42.57121 | 30.48492 | 39957 ft | 517 kts | 282° |
| 2026-05-04 00:50 | 42.58814 | 30.39055 | 39964 ft | 515 kts | 282° |
| 2026-05-04 00:51 | 42.60752 | 30.29728 | 39966 ft | 515 kts | 291° |
| 2026-05-04 00:51 | 42.64399 | 30.21417 | 39975 ft | 515 kts | 309° |
| 2026-05-04 00:52 | 42.69082 | 30.14069 | 39978 ft | 515 kts | 311° |
| 2026-05-04 00:52 | 42.73860 | 30.06852 | 39980 ft | 515 kts | 311° |
| 2026-05-04 00:53 | 42.78636 | 29.99598 | 39985 ft | 514 kts | 311° |
| 2026-05-04 00:53 | 42.83373 | 29.92335 | 39990 ft | 514 kts | 311° |
| 2026-05-04 00:54 | 42.88101 | 29.85049 | 39995 ft | 514 kts | 311° |
| 2026-05-04 00:54 | 42.92814 | 29.77768 | 40001 ft | 515 kts | 311° |
| 2026-05-04 00:55 | 42.97552 | 29.70430 | 40005 ft | 515 kts | 311° |
| 2026-05-04 00:55 | 43.02278 | 29.63094 | 40007 ft | 515 kts | 311° |
| 2026-05-04 00:56 | 43.06982 | 29.55775 | 40015 ft | 514 kts | 311° |
| 2026-05-04 00:56 | 43.11680 | 29.48444 | 40019 ft | 514 kts | 311° |
| 2026-05-04 00:57 | 43.16379 | 29.41095 | 40025 ft | 514 kts | 311° |
| 2026-05-04 00:57 | 43.21082 | 29.33719 | 40027 ft | 514 kts | 311° |
| 2026-05-04 00:58 | 43.25776 | 29.26340 | 40031 ft | 513 kts | 311° |
| 2026-05-04 00:58 | 43.30447 | 29.18979 | 40036 ft | 513 kts | 311° |
| 2026-05-04 00:59 | 43.35122 | 29.11592 | 40039 ft | 513 kts | 311° |
| 2026-05-04 00:59 | 43.39782 | 29.04209 | 40045 ft | 513 kts | 311° |
| 2026-05-04 01:00 | 43.44437 | 28.96815 | 40053 ft | 513 kts | 311° |
| 2026-05-04 01:00 | 43.49100 | 28.89390 | 40054 ft | 513 kts | 311° |
| 2026-05-04 01:01 | 43.53752 | 28.81965 | 40059 ft | 513 kts | 311° |
| 2026-05-04 01:01 | 43.58400 | 28.74526 | 40061 ft | 513 kts | 311° |
| 2026-05-04 01:02 | 43.63044 | 28.67075 | 40063 ft | 513 kts | 311° |
| 2026-05-04 01:02 | 43.67684 | 28.59609 | 40063 ft | 514 kts | 311° |
| 2026-05-04 01:03 | 43.72323 | 28.52117 | 40046 ft | 514 kts | 311° |
| 2026-05-04 01:03 | 43.76441 | 28.44107 | 40044 ft | 514 kts | 304° |
| 2026-05-04 01:04 | 43.80371 | 28.35841 | 40057 ft | 514 kts | 304° |
| 2026-05-04 01:04 | 43.84256 | 28.27570 | 40060 ft | 514 kts | 304° |
| 2026-05-04 01:05 | 43.88149 | 28.19280 | 40059 ft | 514 kts | 304° |
| 2026-05-04 01:05 | 43.92022 | 28.11032 | 40059 ft | 515 kts | 304° |
| 2026-05-04 01:06 | 43.95930 | 28.02690 | 40079 ft | 515 kts | 303° |
| 2026-05-04 01:06 | 43.99811 | 27.94382 | 40061 ft | 515 kts | 303° |
| 2026-05-04 01:07 | 44.03704 | 27.86023 | 40067 ft | 515 kts | 303° |
| 2026-05-04 01:07 | 44.07573 | 27.77690 | 40069 ft | 514 kts | 303° |
| 2026-05-04 01:08 | 44.11437 | 27.69346 | 40080 ft | 514 kts | 303° |
| 2026-05-04 01:08 | 44.15289 | 27.61002 | 40083 ft | 512 kts | 303° |
| 2026-05-04 01:09 | 44.19110 | 27.52702 | 40081 ft | 511 kts | 303° |
| 2026-05-04 01:09 | 44.22944 | 27.44349 | 40080 ft | 510 kts | 303° |
| 2026-05-04 01:10 | 44.26751 | 27.36031 | 40080 ft | 509 kts | 303° |
| 2026-05-04 01:10 | 44.30548 | 27.27714 | 40084 ft | 509 kts | 303° |
| 2026-05-04 01:11 | 44.34335 | 27.19392 | 40091 ft | 509 kts | 303° |
| 2026-05-04 01:11 | 44.38124 | 27.11042 | 40091 ft | 510 kts | 303° |
| 2026-05-04 01:12 | 44.41903 | 27.02690 | 40093 ft | 510 kts | 303° |
| 2026-05-04 01:12 | 44.45686 | 26.94305 | 40094 ft | 510 kts | 303° |
| 2026-05-04 01:13 | 44.49456 | 26.85925 | 40093 ft | 510 kts | 303° |
| 2026-05-04 01:13 | 44.53218 | 26.77537 | 40093 ft | 510 kts | 303° |
| 2026-05-04 01:14 | 44.56974 | 26.69139 | 40101 ft | 510 kts | 303° |
| 2026-05-04 01:14 | 44.60722 | 26.60733 | 40105 ft | 510 kts | 303° |
| 2026-05-04 01:15 | 44.64470 | 26.52302 | 40103 ft | 509 kts | 303° |
| 2026-05-04 01:15 | 44.68205 | 26.43876 | 40112 ft | 509 kts | 303° |
| 2026-05-04 01:16 | 44.71938 | 26.35430 | 40115 ft | 509 kts | 303° |
| 2026-05-04 01:16 | 44.75658 | 26.26990 | 40122 ft | 509 kts | 303° |
| 2026-05-04 01:17 | 44.79372 | 26.18537 | 40123 ft | 509 kts | 303° |
| 2026-05-04 01:17 | 44.83082 | 26.10068 | 40126 ft | 509 kts | 303° |
| 2026-05-04 01:18 | 44.86783 | 26.01594 | 40122 ft | 508 kts | 303° |
| 2026-05-04 01:18 | 44.90471 | 25.93124 | 40129 ft | 508 kts | 303° |
| 2026-05-04 01:19 | 44.94157 | 25.84635 | 40131 ft | 508 kts | 303° |
| 2026-05-04 01:19 | 44.97836 | 25.76137 | 40138 ft | 508 kts | 303° |
| 2026-05-04 01:20 | 45.01503 | 25.67640 | 40139 ft | 508 kts | 303° |
| 2026-05-04 01:20 | 45.05166 | 25.59128 | 40143 ft | 507 kts | 303° |
| 2026-05-04 01:21 | 45.08821 | 25.50608 | 40146 ft | 507 kts | 303° |
| 2026-05-04 01:21 | 45.12459 | 25.42103 | 40152 ft | 507 kts | 303° |
| 2026-05-04 01:22 | 45.16100 | 25.33564 | 40154 ft | 507 kts | 303° |
| 2026-05-04 01:22 | 45.19722 | 25.25043 | 40156 ft | 506 kts | 303° |
| 2026-05-04 01:23 | 45.23345 | 25.16496 | 40162 ft | 506 kts | 303° |
| 2026-05-04 01:23 | 45.26952 | 25.07960 | 40164 ft | 506 kts | 303° |
| 2026-05-04 01:24 | 45.30556 | 24.99403 | 40165 ft | 506 kts | 303° |
| 2026-05-04 01:24 | 45.34152 | 24.90840 | 40162 ft | 506 kts | 303° |
| 2026-05-04 01:25 | 45.37745 | 24.82261 | 40163 ft | 506 kts | 303° |
| 2026-05-04 01:25 | 45.41322 | 24.73694 | 40166 ft | 505 kts | 303° |
| 2026-05-04 01:26 | 45.44906 | 24.65081 | 40160 ft | 505 kts | 303° |
| 2026-05-04 01:26 | 45.48467 | 24.56496 | 40158 ft | 505 kts | 303° |
| 2026-05-04 01:27 | 45.52025 | 24.47895 | 40170 ft | 504 kts | 303° |
| 2026-05-04 01:27 | 45.55569 | 24.39300 | 40167 ft | 504 kts | 303° |
| 2026-05-04 01:28 | 45.59101 | 24.30707 | 40165 ft | 504 kts | 303° |
| 2026-05-04 01:28 | 45.62642 | 24.22067 | 40162 ft | 504 kts | 303° |
| 2026-05-04 01:29 | 45.66171 | 24.13428 | 40159 ft | 504 kts | 303° |
| 2026-05-04 01:29 | 45.69685 | 24.04799 | 40154 ft | 504 kts | 303° |
| 2026-05-04 01:30 | 45.73194 | 23.96156 | 40156 ft | 503 kts | 303° |
| 2026-05-04 01:30 | 45.76696 | 23.87504 | 40159 ft | 502 kts | 303° |
| 2026-05-04 01:31 | 45.80191 | 23.78843 | 40168 ft | 502 kts | 302° |
| 2026-05-04 01:31 | 45.83659 | 23.70220 | 40175 ft | 502 kts | 302° |
| 2026-05-04 01:32 | 45.87135 | 23.61553 | 40183 ft | 502 kts | 302° |
| 2026-05-04 01:32 | 45.90600 | 23.52884 | 40189 ft | 501 kts | 302° |
| 2026-05-04 01:33 | 45.94055 | 23.44212 | 40187 ft | 501 kts | 302° |
| 2026-05-04 01:33 | 45.97502 | 23.35534 | 40192 ft | 501 kts | 302° |
| 2026-05-04 01:34 | 46.00940 | 23.26853 | 40195 ft | 500 kts | 302° |
| 2026-05-04 01:34 | 46.04369 | 23.18163 | 40195 ft | 500 kts | 302° |
| 2026-05-04 01:35 | 46.07790 | 23.09467 | 40195 ft | 500 kts | 302° |
| 2026-05-04 01:35 | 46.11198 | 23.00777 | 40195 ft | 500 kts | 302° |
| 2026-05-04 01:36 | 46.14605 | 22.92065 | 40193 ft | 499 kts | 302° |
| 2026-05-04 01:36 | 46.18000 | 22.83355 | 40194 ft | 500 kts | 302° |
| 2026-05-04 01:37 | 46.21388 | 22.74635 | 40195 ft | 499 kts | 302° |
| 2026-05-04 01:37 | 46.24772 | 22.65895 | 40188 ft | 499 kts | 301° |
| 2026-05-04 01:38 | 46.28149 | 22.57148 | 40184 ft | 499 kts | 301° |
| 2026-05-04 01:38 | 46.31513 | 22.48404 | 40178 ft | 498 kts | 301° |
| 2026-05-04 01:39 | 46.34867 | 22.39660 | 40180 ft | 497 kts | 301° |
| 2026-05-04 01:39 | 46.38203 | 22.30933 | 40176 ft | 496 kts | 301° |
| 2026-05-04 01:40 | 46.41530 | 22.22205 | 40173 ft | 495 kts | 301° |
| 2026-05-04 01:40 | 46.44840 | 22.13491 | 40168 ft | 495 kts | 301° |
| 2026-05-04 01:41 | 46.48136 | 22.04787 | 40166 ft | 494 kts | 301° |
| 2026-05-04 01:41 | 46.51432 | 21.96053 | 40165 ft | 493 kts | 301° |
| 2026-05-04 01:42 | 46.54708 | 21.87346 | 40164 ft | 492 kts | 301° |
| 2026-05-04 01:42 | 46.57979 | 21.78623 | 40160 ft | 492 kts | 301° |
| 2026-05-04 01:43 | 46.61229 | 21.69928 | 40157 ft | 491 kts | 301° |
| 2026-05-04 01:43 | 46.64479 | 21.61204 | 40159 ft | 491 kts | 301° |
| 2026-05-04 01:44 | 46.67719 | 21.52479 | 40156 ft | 491 kts | 301° |
| 2026-05-04 01:44 | 46.70546 | 21.43459 | 40152 ft | 492 kts | 295° |
| 2026-05-04 01:45 | 46.73176 | 21.34263 | 40150 ft | 492 kts | 295° |
| 2026-05-04 01:45 | 46.77075 | 21.20421 | 40157 ft | 492 kts | 295° |
| 2026-05-04 01:46 | 46.79668 | 21.11210 | 40154 ft | 492 kts | 295° |
| 2026-05-04 01:46 | 46.82257 | 21.01994 | 40141 ft | 492 kts | 295° |
| 2026-05-04 01:47 | 46.84836 | 20.92781 | 40153 ft | 491 kts | 295° |
| 2026-05-04 01:47 | 46.87412 | 20.83543 | 40138 ft | 491 kts | 295° |
| 2026-05-04 01:48 | 46.89974 | 20.74316 | 40145 ft | 491 kts | 294° |
| 2026-05-04 01:48 | 46.92519 | 20.65115 | 40148 ft | 490 kts | 294° |
| 2026-05-04 01:49 | 46.95072 | 20.55850 | 40153 ft | 490 kts | 294° |
| 2026-05-04 01:49 | 46.97606 | 20.46618 | 40147 ft | 490 kts | 294° |
| 2026-05-04 01:50 | 47.00133 | 20.37376 | 40153 ft | 490 kts | 294° |
| 2026-05-04 01:50 | 47.02653 | 20.28125 | 40156 ft | 489 kts | 294° |
| 2026-05-04 01:51 | 47.05165 | 20.18866 | 40157 ft | 489 kts | 294° |
| 2026-05-04 01:51 | 47.07661 | 20.09630 | 40155 ft | 489 kts | 294° |
| 2026-05-04 01:52 | 47.10157 | 20.00358 | 40154 ft | 489 kts | 294° |
| 2026-05-04 01:52 | 47.12641 | 19.91095 | 40151 ft | 489 kts | 294° |
| 2026-05-04 01:53 | 47.15119 | 19.81818 | 40156 ft | 490 kts | 294° |
| 2026-05-04 01:53 | 47.17592 | 19.72520 | 40150 ft | 490 kts | 293° |
| 2026-05-04 01:54 | 47.20062 | 19.63196 | 40148 ft | 490 kts | 293° |
| 2026-05-04 01:54 | 47.22521 | 19.53877 | 40149 ft | 490 kts | 293° |
| 2026-05-04 01:55 | 47.24971 | 19.44555 | 40152 ft | 490 kts | 293° |
| 2026-05-04 01:55 | 47.27414 | 19.35224 | 40151 ft | 490 kts | 293° |
| 2026-05-04 01:56 | 47.29846 | 19.25897 | 40154 ft | 489 kts | 293° |
| 2026-05-04 01:56 | 47.32277 | 19.16535 | 40154 ft | 489 kts | 292° |
| 2026-05-04 01:57 | 47.34693 | 19.07196 | 40152 ft | 489 kts | 292° |
| 2026-05-04 01:57 | 47.37106 | 18.97828 | 40148 ft | 489 kts | 292° |
| 2026-05-04 01:58 | 47.39505 | 18.88476 | 40146 ft | 489 kts | 292° |
| 2026-05-04 01:58 | 47.41907 | 18.79073 | 40140 ft | 489 kts | 292° |
| 2026-05-04 01:59 | 47.44296 | 18.69686 | 40135 ft | 489 kts | 292° |
| 2026-05-04 01:59 | 47.46675 | 18.60299 | 40136 ft | 489 kts | 292° |
| 2026-05-04 02:00 | 47.49045 | 18.50908 | 40130 ft | 489 kts | 292° |
| 2026-05-04 02:00 | 47.51412 | 18.41489 | 40127 ft | 489 kts | 292° |
| 2026-05-04 02:01 | 47.53763 | 18.32094 | 40122 ft | 489 kts | 291° |
| 2026-05-04 02:01 | 47.56111 | 18.22671 | 40111 ft | 488 kts | 291° |
| 2026-05-04 02:02 | 47.58447 | 18.13259 | 40108 ft | 488 kts | 291° |
| 2026-05-04 02:02 | 47.60777 | 18.03834 | 40100 ft | 488 kts | 291° |
| 2026-05-04 02:03 | 47.63095 | 17.94413 | 40102 ft | 487 kts | 291° |
| 2026-05-04 02:03 | 47.65403 | 17.84995 | 40106 ft | 487 kts | 291° |
| 2026-05-04 02:04 | 47.67705 | 17.75566 | 40100 ft | 487 kts | 291° |
| 2026-05-04 02:04 | 47.69986 | 17.66175 | 40096 ft | 485 kts | 290° |
| 2026-05-04 02:05 | 47.72267 | 17.56749 | 40095 ft | 484 kts | 290° |
| 2026-05-04 02:05 | 47.74527 | 17.47369 | 40088 ft | 484 kts | 290° |
| 2026-05-04 02:06 | 47.76778 | 17.37987 | 40077 ft | 484 kts | 290° |
| 2026-05-04 02:06 | 47.79028 | 17.28569 | 40083 ft | 484 kts | 290° |
| 2026-05-04 02:07 | 47.81264 | 17.19172 | 40062 ft | 484 kts | 290° |
| 2026-05-04 02:07 | 47.83506 | 17.09717 | 40059 ft | 483 kts | 290° |
| 2026-05-04 02:08 | 47.86080 | 17.00513 | 40065 ft | 483 kts | 295° |
| 2026-05-04 02:08 | 47.88865 | 16.91435 | 40058 ft | 483 kts | 295° |
| 2026-05-04 02:09 | 47.91590 | 16.82327 | 40051 ft | 482 kts | 294° |
| 2026-05-04 02:09 | 47.94252 | 16.73186 | 40029 ft | 482 kts | 294° |
| 2026-05-04 02:10 | 47.96889 | 16.64029 | 40043 ft | 481 kts | 294° |
| 2026-05-04 02:10 | 47.99521 | 16.54862 | 40034 ft | 481 kts | 294° |
| 2026-05-04 02:11 | 48.02147 | 16.45685 | 40042 ft | 482 kts | 293° |
| 2026-05-04 02:11 | 48.04769 | 16.36497 | 40042 ft | 482 kts | 293° |
| 2026-05-04 02:12 | 48.07384 | 16.27293 | 40030 ft | 482 kts | 293° |
| 2026-05-04 02:12 | 48.09989 | 16.18094 | 40022 ft | 481 kts | 293° |
| 2026-05-04 02:13 | 48.12588 | 16.08880 | 40010 ft | 482 kts | 293° |
| 2026-05-04 02:13 | 48.15176 | 15.99666 | 40006 ft | 482 kts | 292° |
| 2026-05-04 02:14 | 48.17760 | 15.90433 | 40003 ft | 482 kts | 292° |
| 2026-05-04 02:14 | 48.20337 | 15.81189 | 40006 ft | 481 kts | 292° |
| 2026-05-04 02:15 | 48.22910 | 15.71922 | 40005 ft | 482 kts | 292° |
| 2026-05-04 02:15 | 48.25473 | 15.62658 | 40004 ft | 482 kts | 292° |
| 2026-05-04 02:16 | 48.28026 | 15.53391 | 40006 ft | 482 kts | 292° |
| 2026-05-04 02:16 | 48.30579 | 15.44089 | 40002 ft | 483 kts | 292° |
| 2026-05-04 02:17 | 48.33123 | 15.34783 | 40007 ft | 483 kts | 292° |
| 2026-05-04 02:17 | 48.35662 | 15.25458 | 40011 ft | 483 kts | 291° |
| 2026-05-04 02:18 | 48.38195 | 15.16120 | 40009 ft | 483 kts | 291° |
| 2026-05-04 02:18 | 48.40710 | 15.06807 | 40009 ft | 483 kts | 291° |
| 2026-05-04 02:19 | 48.43239 | 14.97408 | 40006 ft | 483 kts | 291° |
| 2026-05-04 02:19 | 48.45748 | 14.88045 | 40004 ft | 484 kts | 291° |
| 2026-05-04 02:20 | 48.48250 | 14.78669 | 39989 ft | 483 kts | 291° |
| 2026-05-04 02:20 | 48.50748 | 14.69275 | 39989 ft | 483 kts | 291° |
| 2026-05-04 02:21 | 48.53231 | 14.59896 | 39990 ft | 483 kts | 291° |
| 2026-05-04 02:21 | 48.55713 | 14.50484 | 39992 ft | 483 kts | 290° |
| 2026-05-04 02:22 | 48.58182 | 14.41080 | 40011 ft | 482 kts | 290° |
| 2026-05-04 02:22 | 48.60639 | 14.31683 | 40015 ft | 482 kts | 290° |
| 2026-05-04 02:23 | 48.63089 | 14.22276 | 39998 ft | 482 kts | 290° |
| 2026-05-04 02:23 | 48.65532 | 14.12860 | 39998 ft | 482 kts | 290° |
| 2026-05-04 02:24 | 48.67954 | 14.03488 | 40000 ft | 481 kts | 290° |
| 2026-05-04 02:24 | 48.70378 | 13.94066 | 40018 ft | 481 kts | 290° |
| 2026-05-04 02:25 | 48.72792 | 13.84643 | 40004 ft | 480 kts | 290° |
| 2026-05-04 02:25 | 48.75191 | 13.75240 | 40007 ft | 480 kts | 290° |
| 2026-05-04 02:26 | 48.77567 | 13.65823 | 40006 ft | 479 kts | 289° |
| 2026-05-04 02:26 | 48.79832 | 13.56329 | 40011 ft | 479 kts | 288° |
| 2026-05-04 02:27 | 48.82065 | 13.46836 | 40012 ft | 479 kts | 288° |
| 2026-05-04 02:27 | 48.84312 | 13.37317 | 40012 ft | 480 kts | 288° |
| 2026-05-04 02:28 | 48.86556 | 13.27825 | 40013 ft | 480 kts | 288° |
| 2026-05-04 02:28 | 48.88808 | 13.18264 | 40022 ft | 481 kts | 288° |
| 2026-05-04 02:29 | 48.91047 | 13.08719 | 40020 ft | 481 kts | 288° |
| 2026-05-04 02:29 | 48.93274 | 12.99172 | 40025 ft | 481 kts | 288° |
| 2026-05-04 02:30 | 48.95503 | 12.89577 | 40024 ft | 481 kts | 288° |
| 2026-05-04 02:30 | 48.97720 | 12.79992 | 40026 ft | 481 kts | 288° |
| 2026-05-04 02:31 | 48.99988 | 12.70430 | 40026 ft | 482 kts | 291° |
| 2026-05-04 02:31 | 49.02346 | 12.60917 | 40024 ft | 482 kts | 291° |
| 2026-05-04 02:32 | 49.04617 | 12.51317 | 40023 ft | 482 kts | 290° |
| 2026-05-04 02:32 | 49.06817 | 12.41676 | 40025 ft | 482 kts | 289° |
| 2026-05-04 02:33 | 49.08988 | 12.32041 | 40023 ft | 482 kts | 289° |
| 2026-05-04 02:33 | 49.11159 | 12.22374 | 40027 ft | 482 kts | 289° |
| 2026-05-04 02:34 | 49.13321 | 12.12719 | 40027 ft | 482 kts | 289° |
| 2026-05-04 02:34 | 49.15483 | 12.03026 | 40034 ft | 483 kts | 289° |
| 2026-05-04 02:35 | 49.17628 | 11.93361 | 40035 ft | 483 kts | 289° |
| 2026-05-04 02:35 | 49.19459 | 11.85081 | 40037 ft | 483 kts | 289° |
| 2026-05-04 02:36 | 49.21583 | 11.75434 | 40037 ft | 483 kts | 289° |
| 2026-05-04 02:36 | 49.23711 | 11.65717 | 40033 ft | 483 kts | 288° |
| 2026-05-04 02:37 | 49.25832 | 11.55988 | 40034 ft | 482 kts | 288° |
| 2026-05-04 02:37 | 49.27936 | 11.46296 | 40039 ft | 481 kts | 288° |
| 2026-05-04 02:38 | 49.30036 | 11.36574 | 40043 ft | 481 kts | 288° |
| 2026-05-04 02:38 | 49.32119 | 11.26883 | 40051 ft | 481 kts | 288° |
| 2026-05-04 02:39 | 49.34202 | 11.17148 | 40048 ft | 481 kts | 288° |
| 2026-05-04 02:39 | 49.36275 | 11.07411 | 40047 ft | 481 kts | 288° |
| 2026-05-04 02:40 | 49.38337 | 10.97695 | 40051 ft | 481 kts | 288° |
| 2026-05-04 02:40 | 49.40999 | 10.88273 | 40046 ft | 483 kts | 295° |
| 2026-05-04 02:41 | 49.43986 | 10.79014 | 40056 ft | 484 kts | 296° |
| 2026-05-04 02:41 | 49.46991 | 10.69808 | 40058 ft | 484 kts | 296° |
| 2026-05-04 02:42 | 49.49994 | 10.60543 | 40042 ft | 484 kts | 296° |
| 2026-05-04 02:42 | 49.52974 | 10.51271 | 40039 ft | 485 kts | 296° |
| 2026-05-04 02:43 | 49.55944 | 10.41985 | 40039 ft | 485 kts | 296° |
| 2026-05-04 02:43 | 49.58909 | 10.32684 | 40037 ft | 484 kts | 295° |
| 2026-05-04 02:44 | 49.61861 | 10.23390 | 40033 ft | 484 kts | 295° |
| 2026-05-04 02:44 | 49.64807 | 10.14082 | 40025 ft | 484 kts | 295° |
| 2026-05-04 02:45 | 49.67745 | 10.04764 | 40024 ft | 483 kts | 295° |
| 2026-05-04 02:45 | 49.70662 | 9.95476 | 40021 ft | 483 kts | 295° |
| 2026-05-04 02:46 | 49.73591 | 9.86115 | 40016 ft | 482 kts | 295° |
| 2026-05-04 02:46 | 49.76490 | 9.76816 | 40014 ft | 482 kts | 295° |
| 2026-05-04 02:47 | 49.79387 | 9.67485 | 40016 ft | 481 kts | 295° |
| 2026-05-04 02:47 | 49.82268 | 9.58170 | 40016 ft | 481 kts | 295° |
| 2026-05-04 02:48 | 49.85141 | 9.48846 | 40012 ft | 480 kts | 295° |
| 2026-05-04 02:48 | 49.87999 | 9.39538 | 40006 ft | 480 kts | 294° |
| 2026-05-04 02:49 | 49.90855 | 9.30198 | 40004 ft | 480 kts | 294° |
| 2026-05-04 02:49 | 49.93705 | 9.20845 | 40002 ft | 480 kts | 294° |
| 2026-05-04 02:50 | 49.96539 | 9.11508 | 39997 ft | 479 kts | 294° |
| 2026-05-04 02:50 | 49.99367 | 9.02157 | 40002 ft | 479 kts | 294° |
| 2026-05-04 02:51 | 50.02189 | 8.92790 | 40007 ft | 479 kts | 294° |
| 2026-05-04 02:51 | 50.04999 | 8.83427 | 40014 ft | 479 kts | 294° |
| 2026-05-04 02:52 | 50.07689 | 8.74000 | 40021 ft | 478 kts | 290° |
| 2026-05-04 02:52 | 50.09909 | 8.64285 | 40022 ft | 477 kts | 288° |
| 2026-05-04 02:53 | 50.12066 | 8.54562 | 40023 ft | 477 kts | 288° |
| 2026-05-04 02:53 | 50.14305 | 8.44799 | 40038 ft | 477 kts | 289° |
| 2026-05-04 02:54 | 50.16557 | 8.35139 | 40040 ft | 477 kts | 289° |
| 2026-05-04 02:54 | 50.18824 | 8.25409 | 40035 ft | 477 kts | 289° |
| 2026-05-04 02:55 | 50.22196 | 8.10834 | 40022 ft | 477 kts | 289° |
| 2026-05-04 02:56 | 50.24434 | 8.01096 | 40012 ft | 477 kts | 288° |
| 2026-05-04 02:56 | 50.26658 | 7.91368 | 39998 ft | 477 kts | 288° |
| 2026-05-04 02:57 | 50.28884 | 7.81590 | 40000 ft | 477 kts | 288° |
| 2026-05-04 02:57 | 50.31096 | 7.71833 | 39998 ft | 478 kts | 288° |
| 2026-05-04 02:58 | 50.33303 | 7.62044 | 39998 ft | 478 kts | 288° |
| 2026-05-04 02:58 | 50.35504 | 7.52234 | 39998 ft | 478 kts | 288° |
| 2026-05-04 02:59 | 50.37686 | 7.42469 | 39997 ft | 478 kts | 288° |
| 2026-05-04 02:59 | 50.39878 | 7.32617 | 39996 ft | 478 kts | 288° |
| 2026-05-04 03:00 | 50.42055 | 7.22784 | 39996 ft | 478 kts | 288° |
| 2026-05-04 03:00 | 50.44223 | 7.12945 | 39994 ft | 478 kts | 287° |
| 2026-05-04 03:01 | 50.46376 | 7.03132 | 39989 ft | 478 kts | 287° |
| 2026-05-04 03:01 | 50.48531 | 6.93260 | 39981 ft | 478 kts | 287° |
| 2026-05-04 03:02 | 50.50673 | 6.83402 | 39980 ft | 478 kts | 287° |
| 2026-05-04 03:02 | 50.52833 | 6.73547 | 39971 ft | 478 kts | 287° |
| 2026-05-04 03:03 | 50.55018 | 6.63706 | 39970 ft | 478 kts | 287° |
| 2026-05-04 03:03 | 50.57188 | 6.53879 | 39971 ft | 478 kts | 287° |
| 2026-05-04 03:04 | 50.59356 | 6.43986 | 39969 ft | 478 kts | 287° |
| 2026-05-04 03:04 | 50.61511 | 6.34098 | 39967 ft | 478 kts | 287° |
| 2026-05-04 03:05 | 50.63407 | 6.24123 | 39973 ft | 476 kts | 282° |
| 2026-05-04 03:05 | 50.64974 | 6.14035 | 39968 ft | 476 kts | 281° |
| 2026-05-04 03:06 | 50.66499 | 6.03880 | 39965 ft | 477 kts | 281° |
| 2026-05-04 03:06 | 50.68012 | 5.93735 | 39967 ft | 477 kts | 281° |
| 2026-05-04 03:07 | 50.69528 | 5.83538 | 39956 ft | 478 kts | 281° |
| 2026-05-04 03:07 | 50.71035 | 5.73352 | 39957 ft | 479 kts | 281° |
| 2026-05-04 03:08 | 50.72544 | 5.63086 | 39961 ft | 480 kts | 281° |
| 2026-05-04 03:08 | 50.74039 | 5.52854 | 39966 ft | 480 kts | 281° |
| 2026-05-04 03:09 | 50.75531 | 5.42572 | 39970 ft | 481 kts | 281° |
| 2026-05-04 03:09 | 50.77008 | 5.32328 | 39967 ft | 481 kts | 281° |
| 2026-05-04 03:10 | 50.78483 | 5.22019 | 39960 ft | 482 kts | 281° |
| 2026-05-04 03:10 | 50.79953 | 5.11680 | 39953 ft | 483 kts | 280° |
| 2026-05-04 03:11 | 50.81891 | 5.01910 | 39959 ft | 488 kts | 292° |
| 2026-05-04 03:11 | 50.84841 | 4.92184 | 39950 ft | 492 kts | 294° |
| 2026-05-04 03:12 | 50.87930 | 4.82518 | 39959 ft | 494 kts | 294° |
| 2026-05-04 03:12 | 50.91015 | 4.72839 | 39963 ft | 495 kts | 294° |
| 2026-05-04 03:13 | 50.94087 | 4.63089 | 39967 ft | 496 kts | 294° |
| 2026-05-04 03:13 | 50.97149 | 4.53293 | 39967 ft | 496 kts | 294° |
| 2026-05-04 03:14 | 51.00195 | 4.43503 | 39966 ft | 497 kts | 294° |
| 2026-05-04 03:14 | 51.03240 | 4.33681 | 39962 ft | 497 kts | 294° |
| 2026-05-04 03:15 | 51.06281 | 4.23835 | 39958 ft | 497 kts | 294° |
| 2026-05-04 03:15 | 51.09321 | 4.13953 | 39954 ft | 498 kts | 294° |
| 2026-05-04 03:16 | 51.12345 | 4.04084 | 39949 ft | 497 kts | 294° |
| 2026-05-04 03:16 | 51.15351 | 3.94229 | 39943 ft | 497 kts | 294° |
| 2026-05-04 03:17 | 51.18353 | 3.84350 | 39941 ft | 496 kts | 294° |
| 2026-05-04 03:17 | 51.21351 | 3.74444 | 39940 ft | 496 kts | 294° |
| 2026-05-04 03:18 | 51.24456 | 3.64623 | 39944 ft | 497 kts | 298° |
| 2026-05-04 03:18 | 51.27934 | 3.55090 | 39940 ft | 498 kts | 298° |
| 2026-05-04 03:19 | 51.31457 | 3.45578 | 39941 ft | 499 kts | 298° |
| 2026-05-04 03:19 | 51.34746 | 3.36411 | 39945 ft | 497 kts | 294° |
| 2026-05-04 03:20 | 51.37367 | 3.26242 | 39942 ft | 496 kts | 289° |
| 2026-05-04 03:20 | 51.39816 | 3.15950 | 39948 ft | 496 kts | 289° |
| 2026-05-04 03:21 | 51.42245 | 3.05599 | 39935 ft | 496 kts | 289° |
| 2026-05-04 03:21 | 51.44636 | 2.95378 | 39937 ft | 486 kts | 289° |
| 2026-05-04 03:22 | 51.46982 | 2.85279 | 39942 ft | 482 kts | 289° |
| 2026-05-04 03:22 | 51.49313 | 2.75217 | 39911 ft | 480 kts | 289° |
| 2026-05-04 03:22 | 51.50471 | 2.70225 | 39383 ft | 478 kts | 289° |
| 2026-05-04 03:23 | 51.51632 | 2.65207 | 38658 ft | 482 kts | 289° |
| 2026-05-04 03:23 | 51.52800 | 2.60156 | 37800 ft | 484 kts | 288° |
| 2026-05-04 03:23 | 51.53968 | 2.55110 | 37100 ft | 482 kts | 288° |
| 2026-05-04 03:23 | 51.55130 | 2.50098 | 36410 ft | 476 kts | 288° |
| 2026-05-04 03:24 | 51.56270 | 2.45211 | 35403 ft | 464 kts | 288° |
| 2026-05-04 03:24 | 51.57375 | 2.40429 | 34653 ft | 447 kts | 287° |
| 2026-05-04 03:24 | 51.58426 | 2.35840 | 33939 ft | 432 kts | 287° |
| 2026-05-04 03:24 | 51.59449 | 2.31359 | 33169 ft | 424 kts | 286° |
| 2026-05-04 03:25 | 51.60459 | 2.26887 | 32582 ft | 428 kts | 285° |
| 2026-05-04 03:25 | 51.61470 | 2.22398 | 32087 ft | 428 kts | 285° |
| 2026-05-04 03:25 | 51.62485 | 2.17908 | 31587 ft | 425 kts | 285° |
| 2026-05-04 03:25 | 51.63487 | 2.13479 | 31090 ft | 421 kts | 284° |
| 2026-05-04 03:26 | 51.64483 | 2.09082 | 30596 ft | 417 kts | 284° |
| 2026-05-04 03:26 | 51.65470 | 2.04730 | 30105 ft | 414 kts | 284° |
| 2026-05-04 03:26 | 51.66444 | 2.00371 | 29563 ft | 413 kts | 284° |
| 2026-05-04 03:26 | 51.67400 | 1.96053 | 29061 ft | 408 kts | 284° |
| 2026-05-04 03:27 | 51.68343 | 1.91783 | 28590 ft | 404 kts | 284° |
| 2026-05-04 03:27 | 51.69279 | 1.87542 | 28120 ft | 402 kts | 284° |
| 2026-05-04 03:27 | 51.70213 | 1.83305 | 27645 ft | 401 kts | 285° |
| 2026-05-04 03:27 | 51.71144 | 1.79088 | 27165 ft | 400 kts | 285° |
| 2026-05-04 03:28 | 51.72076 | 1.74870 | 26697 ft | 398 kts | 285° |
| 2026-05-04 03:28 | 51.73001 | 1.70678 | 26236 ft | 396 kts | 286° |
| 2026-05-04 03:28 | 51.73916 | 1.66527 | 25737 ft | 394 kts | 287° |
| 2026-05-04 03:28 | 51.74627 | 1.62293 | 25285 ft | 388 kts | 277° |
| 2026-05-04 03:29 | 51.74809 | 1.58017 | 24850 ft | 382 kts | 266° |
| 2026-05-04 03:29 | 51.74642 | 1.53751 | 24368 ft | 380 kts | 264° |
| 2026-05-04 03:29 | 51.74426 | 1.49528 | 23917 ft | 378 kts | 265° |
| 2026-05-04 03:29 | 51.74216 | 1.45326 | 23431 ft | 376 kts | 265° |
| 2026-05-04 03:30 | 51.74012 | 1.41123 | 22920 ft | 375 kts | 265° |
| 2026-05-04 03:30 | 51.73812 | 1.36970 | 22450 ft | 373 kts | 265° |
| 2026-05-04 03:30 | 51.73613 | 1.32814 | 21982 ft | 371 kts | 265° |
| 2026-05-04 03:30 | 51.73413 | 1.28687 | 21502 ft | 369 kts | 265° |
| 2026-05-04 03:31 | 51.73214 | 1.24578 | 21029 ft | 367 kts | 265° |
| 2026-05-04 03:31 | 51.73014 | 1.20491 | 20553 ft | 365 kts | 265° |
| 2026-05-04 03:31 | 51.72815 | 1.16443 | 20080 ft | 363 kts | 265° |
| 2026-05-04 03:31 | 51.72615 | 1.12407 | 19592 ft | 361 kts | 265° |
| 2026-05-04 03:32 | 51.72415 | 1.08399 | 19138 ft | 359 kts | 265° |
| 2026-05-04 03:32 | 51.72214 | 1.04393 | 18645 ft | 358 kts | 265° |
| 2026-05-04 03:32 | 51.72013 | 1.00411 | 18168 ft | 356 kts | 265° |
| 2026-05-04 03:32 | 51.71811 | 0.96456 | 17651 ft | 354 kts | 265° |
| 2026-05-04 03:33 | 51.71609 | 0.92508 | 17170 ft | 351 kts | 265° |
| 2026-05-04 03:33 | 51.71409 | 0.88623 | 16712 ft | 349 kts | 265° |
| 2026-05-04 03:33 | 51.71207 | 0.84721 | 16235 ft | 347 kts | 265° |
| 2026-05-04 03:33 | 51.71005 | 0.80862 | 15756 ft | 346 kts | 265° |
| 2026-05-04 03:34 | 51.70803 | 0.77028 | 15301 ft | 344 kts | 265° |
| 2026-05-04 03:34 | 51.70601 | 0.73205 | 14829 ft | 342 kts | 265° |
| 2026-05-04 03:34 | 51.70399 | 0.69410 | 14360 ft | 339 kts | 265° |
| 2026-05-04 03:34 | 51.70197 | 0.65639 | 13906 ft | 337 kts | 264° |
| 2026-05-04 03:35 | 51.69995 | 0.61886 | 13412 ft | 336 kts | 264° |
| 2026-05-04 03:35 | 51.69792 | 0.58167 | 12942 ft | 333 kts | 265° |
| 2026-05-04 03:35 | 51.69589 | 0.54449 | 12478 ft | 331 kts | 265° |
| 2026-05-04 03:35 | 51.69388 | 0.50779 | 12026 ft | 329 kts | 265° |
| 2026-05-04 03:36 | 51.69185 | 0.47107 | 11563 ft | 328 kts | 265° |
| 2026-05-04 03:36 | 51.68983 | 0.43474 | 11103 ft | 326 kts | 265° |
| 2026-05-04 03:36 | 51.68781 | 0.39871 | 10788 ft | 319 kts | 265° |
| 2026-05-04 03:36 | 51.68585 | 0.36400 | 10647 ft | 305 kts | 265° |
| 2026-05-04 03:37 | 51.68397 | 0.33090 | 10519 ft | 293 kts | 265° |
| 2026-05-04 03:37 | 51.68211 | 0.29866 | 10381 ft | 281 kts | 265° |
| 2026-05-04 03:37 | 51.68029 | 0.26793 | 10265 ft | 272 kts | 265° |
| 2026-05-04 03:37 | 51.67851 | 0.23797 | 10104 ft | 265 kts | 265° |
| 2026-05-04 03:38 | 51.67677 | 0.20859 | 9851 ft | 263 kts | 265° |
| 2026-05-04 03:38 | 51.67501 | 0.17868 | 9587 ft | 275 kts | 265° |
| 2026-05-04 03:38 | 51.67324 | 0.14780 | 9465 ft | 280 kts | 265° |
| 2026-05-04 03:38 | 51.67149 | 0.11690 | 9137 ft | 277 kts | 265° |
| 2026-05-04 03:39 | 51.66970 | 0.08591 | 8655 ft | 278 kts | 265° |
| 2026-05-04 03:39 | 51.66790 | 0.05508 | 8305 ft | 275 kts | 265° |
| 2026-05-04 03:39 | 51.66611 | 0.02484 | 8111 ft | 266 kts | 265° |
| 2026-05-04 03:39 | 51.66436 | -0.00417 | 7977 ft | 256 kts | 265° |
| 2026-05-04 03:40 | 51.66265 | -0.03205 | 7866 ft | 245 kts | 265° |
| 2026-05-04 03:40 | 51.66098 | -0.05892 | 7683 ft | 239 kts | 265° |
| 2026-05-04 03:40 | 51.65934 | -0.08545 | 7449 ft | 238 kts | 265° |
| 2026-05-04 03:40 | 51.65768 | -0.11182 | 7197 ft | 237 kts | 264° |
| 2026-05-04 03:41 | 51.65350 | -0.13732 | 6981 ft | 238 kts | 245° |
| 2026-05-04 03:41 | 51.64302 | -0.15738 | 6880 ft | 237 kts | 220° |
| 2026-05-04 03:41 | 51.62969 | -0.17282 | 6776 ft | 236 kts | 216° |
| 2026-05-04 03:41 | 51.61613 | -0.18747 | 6689 ft | 235 kts | 216° |
| 2026-05-04 03:42 | 51.60300 | -0.20167 | 6594 ft | 231 kts | 216° |
| 2026-05-04 03:42 | 51.58866 | -0.21211 | 6402 ft | 225 kts | 192° |
| 2026-05-04 03:42 | 51.57915 | -0.21192 | 6280 ft | 223 kts | 171° |
| 2026-05-04 03:42 | 51.56808 | -0.20326 | 6056 ft | 223 kts | 142° |
| 2026-05-04 03:43 | 51.55813 | -0.18481 | 5889 ft | 218 kts | 129° |
| 2026-05-04 03:43 | 51.54944 | -0.16517 | 5612 ft | 215 kts | 129° |
| 2026-05-04 03:43 | 51.53933 | -0.14788 | 5237 ft | 213 kts | 151° |
| 2026-05-04 03:43 | 51.52526 | -0.14290 | 4891 ft | 206 kts | 185° |
| 2026-05-04 03:44 | 51.51107 | -0.14478 | 4322 ft | 206 kts | 192° |
| 2026-05-04 03:44 | 51.49731 | -0.15071 | 3755 ft | 205 kts | 204° |
| 2026-05-04 03:44 | 51.48512 | -0.16122 | 3373 ft | 196 kts | 219° |
| 2026-05-04 03:44 | 51.47796 | -0.17838 | 3236 ft | 176 kts | 258° |
| 2026-05-04 03:45 | 51.47744 | -0.19748 | 3108 ft | 173 kts | 277° |
| 2026-05-04 03:45 | 51.47853 | -0.21674 | 2842 ft | 174 kts | 276° |
| 2026-05-04 03:45 | 51.47877 | -0.23603 | 2575 ft | 175 kts | 269° |
| 2026-05-04 03:45 | 51.47813 | -0.25543 | 2337 ft | 174 kts | 271° |
| 2026-05-04 03:46 | 51.47826 | -0.27498 | 2100 ft | 172 kts | 273° |
| 2026-05-04 03:46 | 51.47825 | -0.29350 | 1864 ft | 164 kts | 272° |
| 2026-05-04 03:46 | 51.47814 | -0.31126 | 1637 ft | 154 kts | 272° |
| 2026-05-04 03:46 | 51.47809 | -0.32782 | 1417 ft | 143 kts | 272° |
| 2026-05-04 03:47 | 51.47803 | -0.34321 | 1240 ft | 136 kts | 272° |
| 2026-05-04 03:47 | 51.47797 | -0.35834 | 1057 ft | 137 kts | 272° |
| 2026-05-04 03:47 | 51.47791 | -0.37376 | 857 ft | 139 kts | 272° |
| 2026-05-04 03:47 | 51.47784 | -0.38938 | 666 ft | 140 kts | 267° |
| 2026-05-04 03:48 | 51.47783 | -0.40334 | 457 ft | 140 kts | 271° |
| 2026-05-04 03:48 | 51.47776 | -0.41862 | 254 ft | 139 kts | 271° |
| 2026-05-04 03:48 | 51.47778 | -0.43399 | 146 ft | 135 kts | 273° |
| 2026-05-04 03:48 | 51.47760 | -0.44625 | 103 ft | 125 kts | 268° |
| 2026-05-04 03:49 | 51.47768 | -0.45830 | 94 ft | 75 kts | 270° |
| 2026-05-04 03:49 | 51.47761 | -0.46267 | 94 ft | 10 kts | 266° |
| 2026-05-04 03:49 | 51.47756 | -0.46395 | 98 ft | 12 kts | 266° |
| 2026-05-04 03:49 | 51.47746 | -0.46530 | 96 ft | 13 kts | 259° |
| 2026-05-04 03:50 | 51.47714 | -0.46674 | 96 ft | 15 kts | 247° |
| 2026-05-04 03:50 | 51.47670 | -0.46808 | 97 ft | 0 kts | 237° |
| 2026-05-04 03:50 | 51.47670 | -0.46809 | 97 ft | 0 kts | 237° |
| 2026-05-04 03:50 | 51.47668 | -0.46814 | 97 ft | 2 kts | 237° |
| 2026-05-04 03:51 | 51.47628 | -0.46873 | 96 ft | 12 kts | 213° |
| 2026-05-04 03:51 | 51.47549 | -0.46920 | 96 ft | 14 kts | 188° |
| 2026-05-04 03:51 | 51.47454 | -0.46901 | 96 ft | 7 kts | 166° |
| 2026-05-04 03:51 | 51.47452 | -0.46900 | 96 ft | 0 kts | 166° |
| 2026-05-04 03:54 | 51.47407 | -0.46883 | 96 ft | 13 kts | 167° |
| 2026-05-04 03:54 | 51.47313 | -0.46871 | 96 ft | 15 kts | 180° |
| 2026-05-04 03:55 | 51.47242 | -0.46788 | 93 ft | 14 kts | 106° |
| 2026-05-04 03:55 | 51.47238 | -0.46624 | 93 ft | 16 kts | 89° |
| 2026-05-04 03:55 | 51.47239 | -0.46532 | 93 ft | 0 kts | 89° |
| 2026-05-04 03:57 | 51.47239 | -0.46526 | 93 ft | 2 kts | 89° |
| 2026-05-04 03:57 | 51.47239 | -0.46524 | 93 ft | 0 kts | 89° |
| 2026-05-04 03:59 | 51.47239 | -0.46488 | 93 ft | 9 kts | 94° |
| 2026-05-04 03:59 | 51.47207 | -0.46400 | 96 ft | 8 kts | 141° |
| 2026-05-04 03:59 | 51.47200 | -0.46400 | 96 ft | 0 kts | 176° |
| 2026-05-04 03:59 | 51.47176 | -0.46435 | 93 ft | 0 kts | 227° |
| 2026-05-04 04:00 | 51.47163 | -0.46457 | 97 ft | 1 kts | 231° |
| 2026-05-04 04:00 | 51.47157 | -0.46472 | 95 ft | 2 kts | 233° |
| 2026-05-04 04:01 | 51.47156 | -0.46474 | 95 ft | 0 kts | 233° |
| 2026-05-04 04:01 | 51.47152 | -0.46482 | 96 ft | 0 kts | 234° |
| 2026-05-04 04:02 | 51.47152 | -0.46483 | 96 ft | 0 kts | 234° |
| 2026-05-04 04:02 | 51.47151 | -0.46484 | 97 ft | 0 kts | 234° |